Airfield :
LOGIN :

Register | Disclaimer

   EN    FR    IT 

 










Legend :    VFR   Marginal VFR   IFR   Intensive IFR   Very Intensive IFR
Visi :
Ceiling :
>= 8 km
>= 3000ft
5 to 8 km
1000 to 3000 ft
1500m to 5 km
500 to 1000 ft
800 to 1500m
200 to 500 ft
< 800m
< 200 ft
Symbols :   Thunderstorms  Fog  Heavy snow  Heavy precipitations  Wind > 20 kt
SIGMETs :     Misc.  Thunderstorms  Icing  Turbulence  Mountain Waves  Volcanic Ashes






- Airport Elevation : 291 ft
- IATA code : ORY


LFPO - Paris-Orly

CURRENT METAR :
  • 220130Z AUTO 22012KT 180V250 6000 -RA OVC007 12/11 Q1002 TEMPO 3000 -RADZ BECMG 20015G25KT

EXPIRED METARs :
  • 220100Z 21013KT 5000 -RA BKN007 12/11 Q1003 NOSIG
  • 220030Z 21013KT 180V240 4000 -RA BKN007 11/11 Q1003 NOSIG
  • 220000Z 21012KT 190V250 9999 -RA BKN008 11/10 Q1004 NOSIG
  • 212330Z 21014KT 180V240 9000 -RA BKN008 11/10 Q1004 NOSIG
  • 212300Z 22014KT 4500 -RA BKN006 11/10 Q1005 NOSIG
  • 212230Z 21014KT 3500 -DZ BKN006 11/10 Q1005 NOSIG
  • 212200Z 21013KT 4000 -DZ BKN006 11/10 Q1006 NOSIG
  • 212130Z 21014KT 5000 -RA BKN006 10/10 Q1006 NOSIG
  • 212100Z 21016KT 6000 -RADZ BKN007 10/09 Q1007 NOSIG

TAF TAF LFPO
Valid from the 22 at 00:00 until the 23 at 06:00 UTC


212300Z 2200/2306 20015G25KT 6000 -RA BKN008
TEMPO 2200/2215 3000 -RADZ
PROB40
TEMPO 2206/2209 BKN004
BECMG 2209/2211 21015G35KT SCT010 BKN015
BECMG 2213/2215 NSW SCT015 BKN030
TEMPO 2215/2219 24020G45KT 3000 SHRA BKN020TCU
PROB30
TEMPO 2216/2217 27030G50KT BKN020CB
BECMG 2221/2224 21015G25KT
ATIS : +33 1 49 75 65 80



MET'MAP, your aeronautical weather chart ! - Copyright ORBIFLY December 2007 - Disclaimer

ORBIFLY MET'MAP TEAM :

Programming & Development : Alexandra Zaïnal
Original concept : Baudouin d'Aumeries
Technical & hardware support : Manuel Goepfert
Assistance : Marc-Olivier Méhu




SOURCES & CREDITS :

   NOAA